Time;durP1;ratioP1;P1;durP2;ratioP2;P2;SDS_P1;SDS_P2;PMS_P1;PMS_P2;Temp;Humidity;BMP_temperature;BMP_pressure;BME280_temperature;BME280_humidity;BME280_pressure;Samples;Min_cycle;Max_cycle;Signal;HPM_P1;HPM_P2
2023/03/21 00:00:59;;;;;;;6.57;5.45;;;;;;;11.91;55.70;99271.78;5125375;28;20042;-70
2023/03/21 00:03:27;;;;;;;7.45;6.38;;;;;;;11.88;55.59;99267.50;5125483;28;20067;-69
2023/03/21 00:05:55;;;;;;;6.97;6.05;;;;;;;11.32;55.70;99184.25;5124515;28;20039;-69
2023/03/21 00:08:24;;;;;;;6.85;6.15;;;;;;;11.87;55.82;99256.03;5125715;28;20051;-70
2023/03/21 00:10:57;;;;;;;7.32;6.50;;;;;;;11.41;56.28;99185.47;5125697;28;20066;-71
2023/03/21 00:13:25;;;;;;;6.55;5.95;;;;;;;11.83;55.73;99258.97;5125409;28;20051;-71
2023/03/21 00:15:54;;;;;;;7.45;5.72;;;;;;;11.82;55.96;99257.25;5125415;28;20094;-71
2023/03/21 00:18:21;;;;;;;6.35;5.75;;;;;;;11.27;55.91;99185.47;5128270;28;20043;-70
2023/03/21 00:20:57;;;;;;;6.80;6.13;;;;;;;11.72;56.80;99237.53;5129087;28;20225;-71
2023/03/21 00:23:24;;;;;;;7.32;6.28;;;;;;;11.82;56.03;99254.59;5129068;28;20043;-70
2023/03/21 00:25:51;;;;;;;7.00;6.30;;;;;;;11.83;56.01;99251.00;5129208;28;20031;-70
2023/03/21 00:28:18;;;;;;;6.75;5.70;;;;;;;11.28;56.04;99180.06;5128133;28;20040;-71
2023/03/21 00:30:45;;;;;;;6.50;5.50;;;;;;;10.65;56.16;99066.31;5128971;28;20292;-70
2023/03/21 00:33:13;;;;;;;6.32;5.50;;;;;;;10.84;56.09;99074.88;5127940;28;20230;-70
2023/03/21 00:35:43;;;;;;;6.57;5.85;;;;;;;11.81;55.91;99237.81;5128785;28;20047;-70
2023/03/21 00:38:10;;;;;;;7.28;6.40;;;;;;;10.20;56.08;98970.09;5128369;28;20040;-70
2023/03/21 00:40:37;;;;;;;7.28;6.53;;;;;;;11.80;56.21;99243.22;5128017;28;20118;-70
2023/03/21 00:43:04;;;;;;;9.30;7.28;;;;;;;11.77;56.17;99241.63;5128898;28;20127;-71
2023/03/21 00:45:31;;;;;;;7.20;6.50;;;;;;;11.33;55.99;99164.72;5128527;28;20110;-71
2023/03/21 00:48:01;;;;;;;7.22;6.47;;;;;;;11.80;56.09;99241.41;5128564;28;20046;-70
2023/03/21 00:50:29;;;;;;;9.52;7.15;;;;;;;11.79;56.33;99238.88;5129118;28;20331;-70
2023/03/21 00:52:56;;;;;;;6.75;6.05;;;;;;;11.50;56.31;99199.03;5128468;28;20046;-69
2023/03/21 00:55:23;;;;;;;6.43;5.82;;;;;;;11.78;56.32;99242.47;5128922;28;20031;-69
2023/03/21 00:57:50;;;;;;;9.70;6.80;;;;;;;11.77;56.40;99243.41;5128443;28;20208;-69
2023/03/21 01:00:19;;;;;;;5.50;4.90;;;;;;;11.76;56.31;99242.56;5128964;28;20044;-70
2023/03/21 01:02:55;;;;;;;7.70;5.63;;;;;;;11.53;56.43;99205.97;5128648;28;20039;-70
2023/03/21 01:06:01;;;;;;;7.10;6.40;;;;;;;11.72;56.55;99235.72;5128084;28;20303;-71
2023/03/21 01:08:12;;;;;;;6.82;5.55;;;;;;;11.71;56.45;99246.44;5128058;28;20043;-71
2023/03/21 01:10:40;;;;;;;6.20;5.60;;;;;;;11.72;56.50;99285.31;5128748;28;20054;-71
2023/03/21 01:13:07;;;;;;;8.07;6.53;;;;;;;11.72;56.36;99240.19;5128076;28;20045;-71
2023/03/21 01:15:34;;;;;;;8.45;5.97;;;;;;;11.71;56.39;99239.34;5128343;28;20055;-71
2023/03/21 01:18:01;;;;;;;6.22;5.63;;;;;;;11.20;56.50;99169.06;5128020;28;20092;-71
2023/03/21 01:20:29;;;;;;;5.18;4.65;;;;;;;11.72;56.26;99243.69;5127903;28;20028;-71
2023/03/21 01:22:56;;;;;;;5.82;5.22;;;;;;;11.71;56.32;99235.81;5110558;28;20195;-71
2023/03/21 01:25:24;;;;;;;6.18;4.85;;;;;;;11.73;56.72;99241.91;5127808;28;20040;-72
2023/03/21 01:27:51;;;;;;;5.70;4.93;;;;;;;11.72;56.18;99232.22;5127386;28;20046;-71
2023/03/21 01:30:18;;;;;;;5.88;5.28;;;;;;;11.51;56.13;99202.53;5127543;28;20047;-71
2023/03/21 01:32:45;;;;;;;5.25;4.50;;;;;;;11.73;56.21;99231.28;5127693;28;20055;-70
2023/03/21 01:35:11;;;;;;;5.78;3.78;;;;;;;11.72;55.95;99237.53;5126850;28;20295;-70
2023/03/21 01:37:38;;;;;;;5.60;4.25;;;;;;;11.62;55.86;99213.34;5126672;28;20032;-71
2023/03/21 01:40:11;;;;;;;4.95;3.80;;;;;;;11.53;56.00;99213.91;5128050;28;20036;-70
2023/03/21 01:42:40;;;;;;;4.05;3.20;;;;;;;10.49;55.88;99055.78;5128054;28;20218;-70
2023/03/21 01:45:46;;;;;;;5.88;3.70;;;;;;;11.70;56.16;99236.78;5127646;28;20313;-70
2023/03/21 01:48:16;;;;;;;5.15;3.10;;;;;;;11.67;55.84;99227.19;5126530;28;20051;-71
2023/03/21 01:50:45;;;;;;;4.15;3.67;;;;;;;11.67;55.57;99231.66;5127482;28;20077;-70
2023/03/21 01:53:12;;;;;;;4.15;3.33;;;;;;;11.57;55.82;99218.94;5109571;28;20062;-70
2023/03/21 01:55:39;;;;;;;4.07;3.45;;;;;;;11.66;55.79;99227.28;5126537;28;20059;-71
2023/03/21 01:58:12;;;;;;;4.10;3.55;;;;;;;11.64;55.90;99223.88;5126812;28;20081;-70
2023/03/21 02:00:40;;;;;;;4.18;3.47;;;;;;;11.63;55.48;99225.69;5126416;28;20047;-71
2023/03/21 02:03:10;;;;;;;5.35;3.53;;;;;;;11.64;55.73;99227.38;5126708;28;20065;-71
2023/03/21 02:05:44;;;;;;;4.45;3.50;;;;;;;11.43;55.82;99191.53;5125835;28;20093;-71
2023/03/21 02:08:12;;;;;;;4.18;3.55;;;;;;;11.65;55.65;99226.44;5126261;28;20054;-71
2023/03/21 02:10:40;;;;;;;4.18;3.42;;;;;;;11.64;55.62;99224.72;5126903;28;20039;-71
2023/03/21 02:13:10;;;;;;;4.65;3.55;;;;;;;11.64;55.75;99219.44;5126874;28;20286;-70
2023/03/21 02:15:38;;;;;;;5.00;3.85;;;;;;;11.65;55.52;99220.28;5125983;28;20046;-71
2023/03/21 02:18:13;;;;;;;5.10;4.15;;;;;;;11.62;55.86;99218.66;5125940;28;20127;-71
2023/03/21 02:21:10;;;;;;;4.70;3.75;;;;;;;11.61;56.28;99214.31;5125922;28;20058;-70
2023/03/21 02:24:12;;;;;;;4.10;3.70;;;;;;;11.58;56.46;99219.81;5125856;28;20063;-71
2023/03/21 02:26:57;;;;;;;4.47;3.60;;;;;;;11.58;56.42;99217.16;5125655;28;20039;-71
2023/03/21 02:29:54;;;;;;;5.03;4.15;;;;;;;11.62;56.19;99220.47;5125916;28;20047;-71
2023/03/21 02:32:41;;;;;;;4.60;4.03;;;;;;;11.62;56.13;99217.81;5123383;28;20059;-71
2023/03/21 02:35:28;;;;;;;4.82;4.32;;;;;;;11.63;56.43;99214.22;5126401;28;20153;-70
2023/03/21 02:38:02;;;;;;;7.97;5.20;;;;;;;11.20;56.30;99134.59;5125558;28;20046;-71
2023/03/21 02:40:34;;;;;;;5.15;4.30;;;;;;;11.67;55.96;99210.41;5126425;27;20036;-71
2023/03/21 02:43:05;;;;;;;4.90;4.03;;;;;;;11.31;56.03;99157.81;5125494;28;20264;-72
2023/03/21 02:45:39;;;;;;;6.80;4.72;;;;;;;11.67;55.90;99205.09;5126694;28;20039;-71
2023/03/21 02:48:09;;;;;;;5.60;4.72;;;;;;;11.65;55.90;99199.03;5126723;28;20239;-72
2023/03/21 02:50:43;;;;;;;4.35;3.95;;;;;;;10.81;56.25;99058.31;5126239;28;20046;-71
2023/03/21 02:53:19;;;;;;;5.18;4.40;;;;;;;11.63;56.19;99199.13;5126316;28;20043;-71
2023/03/21 02:55:48;;;;;;;4.78;4.28;;;;;;;11.62;55.68;99200.09;5126461;28;20047;-72
2023/03/21 02:58:19;;;;;;;5.07;4.45;;;;;;;11.61;55.94;99193.06;5126215;28;20203;-71
2023/03/21 03:00:47;;;;;;;6.63;4.35;;;;;;;11.06;55.50;99116.00;5126114;28;20036;-71
2023/03/21 03:03:16;;;;;;;4.72;4.15;;;;;;;11.15;55.93;99112.78;5108482;28;20043;-71
2023/03/21 03:05:46;;;;;;;5.20;4.63;;;;;;;11.59;55.81;99189.66;5125284;28;20045;-71
2023/03/21 03:08:31;;;;;;;5.40;4.53;;;;;;;11.07;56.37;99182.22;5126025;28;20050;-70
2023/03/21 03:11:13;;;;;;;4.88;4.30;;;;;;;11.53;56.53;99192.69;5125938;28;20067;-71
2023/03/21 03:13:56;;;;;;;4.97;4.18;;;;;;;10.96;56.34;99102.47;5126168;28;20032;-71
2023/03/21 03:16:31;;;;;;;6.22;4.00;;;;;;;11.40;56.26;99181.13;5126353;28;20157;-71
2023/03/21 03:19:00;;;;;;;4.85;4.07;;;;;;;11.49;56.21;99199.97;5125209;28;20036;-71
2023/03/21 03:21:32;;;;;;;4.95;4.32;;;;;;;11.47;56.31;99209.84;5124655;28;20047;-71
2023/03/21 03:24:05;;;;;;;4.93;4.30;;;;;;;11.26;56.03;99173.16;5126041;28;20044;-71
2023/03/21 03:26:36;;;;;;;4.47;3.95;;;;;;;10.96;56.24;99133.41;5124810;28;20039;-71
2023/03/21 03:29:07;;;;;;;6.03;4.30;;;;;;;11.49;56.16;99193.81;5124870;28;20048;-71
2023/03/21 03:31:38;;;;;;;5.63;4.20;;;;;;;11.49;56.20;99193.81;5125980;28;20279;-71
2023/03/21 03:34:09;;;;;;;5.65;4.78;;;;;;;11.48;56.22;99192.13;5125566;28;20059;-71
2023/03/21 03:36:41;;;;;;;5.38;4.45;;;;;;;11.45;56.31;99194.97;5124771;28;20036;-71
2023/03/21 03:39:11;;;;;;;6.35;4.95;;;;;;;11.45;56.28;99213.53;5125436;28;20047;-71
2023/03/21 03:41:44;;;;;;;6.43;5.82;;;;;;;10.65;56.31;99063.66;5107924;28;20043;-71
2023/03/21 03:44:12;;;;;;;6.13;5.53;;;;;;;11.39;56.47;99204.16;5125558;28;20034;-71
2023/03/21 03:46:45;;;;;;;5.97;5.38;;;;;;;11.37;56.91;99197.22;5125490;28;20050;-71
2023/03/21 03:49:17;;;;;;;7.25;5.43;;;;;;;10.99;56.51;99133.25;5125535;28;20040;-71
2023/03/21 03:51:51;;;;;;;6.45;5.78;;;;;;;11.37;56.83;99199.88;5125758;28;20048;-71
2023/03/21 03:54:25;;;;;;;6.90;5.88;;;;;;;11.32;56.99;99186.91;5129270;28;20035;-71
2023/03/21 03:56:52;;;;;;;6.55;5.80;;;;;;;11.31;56.65;99198.44;5129708;28;20043;-71
2023/03/21 03:59:22;;;;;;;6.13;5.45;;;;;;;11.31;56.47;99193.16;5129957;28;20035;-71
2023/03/21 04:01:49;;;;;;;6.78;6.07;;;;;;;10.93;56.67;99130.94;5129421;27;20066;-71
2023/03/21 04:04:16;;;;;;;5.95;5.35;;;;;;;11.24;56.87;99184.72;5129563;28;20046;-71
2023/03/21 04:06:44;;;;;;;7.40;6.13;;;;;;;11.29;56.58;99194.19;5128637;28;20031;-71
2023/03/21 04:09:12;;;;;;;7.10;5.97;;;;;;;11.31;56.72;99190.50;5128764;28;20035;-71
2023/03/21 04:11:40;;;;;;;5.85;5.28;;;;;;;11.33;56.61;99201.88;5128403;28;20349;-71
2023/03/21 04:14:07;;;;;;;6.47;5.47;;;;;;;11.13;56.66;99152.66;5128367;28;20246;-71
2023/03/21 04:16:34;;;;;;;6.78;6.13;;;;;;;10.95;56.55;99126.41;5128112;28;20207;-71
2023/03/21 04:19:01;;;;;;;6.28;5.50;;;;;;;11.31;56.68;99187.00;5128274;28;20044;-71
2023/03/21 04:21:28;;;;;;;8.05;6.20;;;;;;;11.29;56.69;99191.53;5128737;28;20188;-71
2023/03/21 04:23:56;;;;;;;6.35;5.53;;;;;;;11.28;56.65;99203.09;5128724;27;20122;-70
2023/03/21 04:26:23;;;;;;;6.70;5.93;;;;;;;10.54;56.55;99085.50;5129092;28;20280;-70
2023/03/21 04:28:51;;;;;;;6.38;5.45;;;;;;;10.47;56.49;99084.16;5128075;28;20036;-70
2023/03/21 04:31:18;;;;;;;6.68;5.97;;;;;;;11.17;56.68;99193.97;5129136;28;20181;-70
2023/03/21 04:33:46;;;;;;;8.80;7.13;;;;;;;11.12;56.90;99198.72;5128474;28;20058;-70
2023/03/21 04:36:26;;;;;;;6.68;5.60;;;;;;;11.07;56.92;99206.09;5128190;28;20032;-70
2023/03/21 04:38:53;;;;;;;5.80;5.20;;;;;;;11.05;56.85;99207.97;5129283;28;20218;-70
2023/03/21 04:41:20;;;;;;;6.38;5.60;;;;;;;10.87;56.92;99180.75;5128131;28;20040;-70
2023/03/21 04:43:47;;;;;;;6.28;5.28;;;;;;;11.00;57.09;99207.41;5128095;28;20050;-70
2023/03/21 04:46:15;;;;;;;5.50;5.00;;;;;;;10.96;57.10;99208.53;5128559;28;20035;-70
2023/03/21 04:48:42;;;;;;;6.05;5.43;;;;;;;10.97;56.94;99202.28;5128486;28;20040;-70
2023/03/21 04:51:09;;;;;;;5.97;5.47;;;;;;;10.95;57.01;99211.25;5127425;28;20050;-71
2023/03/21 04:53:37;;;;;;;5.75;5.15;;;;;;;8.91;56.90;98862.03;5127538;28;20059;-71
2023/03/21 04:56:04;;;;;;;7.10;4.65;;;;;;;10.69;57.11;99165.91;5128285;28;20032;-71
2023/03/21 04:58:31;;;;;;;5.90;5.30;;;;;;;10.87;57.31;99209.06;5128766;28;20051;-71
2023/03/21 05:00:57;;;;;;;5.65;5.10;;;;;;;10.85;57.14;99208.28;5127425;28;20040;-71
2023/03/21 05:03:28;;;;;;;5.85;5.25;;;;;;;10.45;57.28;99144.31;5128718;28;20049;-70
2023/03/21 05:05:55;;;;;;;5.95;5.35;;;;;;;9.99;57.42;99079.06;5128154;28;20039;-70
2023/03/21 05:08:22;;;;;;;7.05;5.47;;;;;;;10.77;57.37;99213.16;5127945;28;20039;-71
2023/03/21 05:10:49;;;;;;;5.85;5.25;;;;;;;10.40;57.47;99157.00;5127602;28;20053;-70
2023/03/21 05:13:15;;;;;;;6.72;5.68;;;;;;;10.50;57.36;99178.50;5128608;27;20191;-70
2023/03/21 05:15:42;;;;;;;6.40;5.80;;;;;;;10.71;57.44;99219.66;5127118;28;20180;-71
2023/03/21 05:18:10;;;;;;;9.48;6.20;;;;;;;10.53;57.48;99192.44;5127894;28;20238;-71
2023/03/21 05:20:41;;;;;;;6.43;5.75;;;;;;;10.68;57.38;99221.66;5127036;28;20073;-70
2023/03/21 05:23:09;;;;;;;6.05;5.45;;;;;;;10.70;57.59;99222.41;5127982;28;20308;-70
2023/03/21 05:25:36;;;;;;;8.60;5.63;;;;;;;10.66;57.63;99232.34;5126881;28;20045;-70
2023/03/21 05:28:05;;;;;;;7.60;5.70;;;;;;;10.29;57.45;99164.69;5127112;28;20070;-70
2023/03/21 05:30:32;;;;;;;6.10;5.50;;;;;;;10.66;57.45;99234.97;5128171;28;20256;-70
2023/03/21 05:32:59;;;;;;;6.57;5.88;;;;;;;10.68;57.49;99221.66;5126699;28;20059;-70
2023/03/21 05:35:26;;;;;;;5.70;5.20;;;;;;;10.70;57.62;99223.25;5127761;28;20119;-71
2023/03/21 05:37:55;;;;;;;6.43;5.75;;;;;;;10.47;57.48;99183.97;5126764;28;20067;-70
2023/03/21 05:40:22;;;;;;;6.43;5.78;;;;;;;10.67;57.71;99220.78;5126684;28;20036;-70
2023/03/21 05:42:48;;;;;;;6.40;5.28;;;;;;;10.67;57.66;99231.38;5126835;28;20039;-71
2023/03/21 05:45:16;;;;;;;8.18;5.72;;;;;;;10.68;57.76;99232.25;5126572;28;20040;-71
2023/03/21 05:47:43;;;;;;;6.43;5.13;;;;;;;10.71;57.67;99232.06;5127312;28;20173;-71
2023/03/21 05:50:12;;;;;;;7.00;6.30;;;;;;;10.73;57.73;99227.53;5127403;28;20035;-71
2023/03/21 05:52:38;;;;;;;6.63;5.63;;;;;;;10.72;57.74;99225.81;5126359;28;20039;-71
2023/03/21 05:55:07;;;;;;;7.95;6.55;;;;;;;10.73;57.89;99230.19;5126447;28;20043;-71
2023/03/21 05:57:38;;;;;;;6.78;5.65;;;;;;;10.73;57.85;99238.13;5126321;28;20032;-71
2023/03/21 06:00:07;;;;;;;9.25;6.22;;;;;;;10.75;57.85;99228.28;5126240;28;20043;-71
2023/03/21 06:02:34;;;;;;;6.40;5.80;;;;;;;10.81;57.55;99222.66;5127589;28;20088;-71
2023/03/21 06:05:00;;;;;;;9.48;6.28;;;;;;;10.85;57.43;99222.41;5127204;28;20077;-71
2023/03/21 06:07:27;;;;;;;11.27;6.95;;;;;;;10.97;57.20;99226.13;5126666;28;20040;-71
2023/03/21 06:09:54;;;;;;;8.32;6.88;;;;;;;11.14;56.86;99223.34;5126972;28;20043;-71
2023/03/21 06:12:22;;;;;;;7.97;6.28;;;;;;;11.30;56.83;99225.94;5127263;28;20039;-71
2023/03/21 06:14:49;;;;;;;9.05;7.07;;;;;;;11.37;56.03;99213.16;5126576;28;20337;-70
2023/03/21 06:17:16;;;;;;;6.93;6.03;;;;;;;11.61;55.74;99213.44;5125776;28;20043;-71
2023/03/21 06:19:43;;;;;;;6.75;5.95;;;;;;;11.87;55.23;99229.47;5126710;28;20044;-71
2023/03/21 06:22:09;;;;;;;9.13;6.45;;;;;;;12.07;54.60;99225.59;5127046;28;20303;-71
2023/03/21 06:24:37;;;;;;;7.25;6.30;;;;;;;12.29;54.20;99227.78;5126733;28;20318;-71
2023/03/21 06:27:04;;;;;;;8.00;6.00;;;;;;;12.50;53.68;99237.03;5126540;28;20054;-71
2023/03/21 06:29:32;;;;;;;8.38;6.13;;;;;;;12.72;53.70;99230.28;5125739;28;20067;-70
2023/03/21 06:31:59;;;;;;;7.72;6.68;;;;;;;12.93;53.06;99228.03;5126715;28;20097;-71
2023/03/21 06:34:26;;;;;;;6.88;6.07;;;;;;;12.91;52.87;99184.72;5126829;28;20065;-71
2023/03/21 06:36:53;;;;;;;9.20;6.93;;;;;;;13.34;52.46;99230.53;5126377;28;20035;-71
2023/03/21 06:39:21;;;;;;;6.13;5.53;;;;;;;13.33;51.76;99192.44;5125357;28;20204;-71
2023/03/21 06:41:48;;;;;;;6.70;5.97;;;;;;;12.28;51.74;98984.25;5126177;28;20044;-71
2023/03/21 06:44:14;;;;;;;7.03;6.15;;;;;;;13.77;51.20;99217.81;5125513;28;20104;-71
2023/03/21 06:46:43;;;;;;;6.53;5.28;;;;;;;14.02;51.02;99224.91;5125678;28;20043;-71
2023/03/21 06:49:10;;;;;;;5.93;5.20;;;;;;;14.22;51.01;99223.47;5126144;27;20050;-71
2023/03/21 06:51:36;;;;;;;5.93;5.32;;;;;;;14.15;51.09;99230.22;5126444;28;20049;-71
2023/03/21 06:54:03;;;;;;;6.28;5.68;;;;;;;13.26;51.12;99111.31;5125447;28;20036;-71
2023/03/21 06:56:31;;;;;;;6.65;5.95;;;;;;;14.07;51.37;99244.09;5125524;28;20035;-71
2023/03/21 06:58:58;;;;;;;5.68;5.07;;;;;;;14.07;50.67;99199.63;5126318;28;20035;-71
2023/03/21 07:01:26;;;;;;;7.55;5.60;;;;;;;14.47;50.21;99227.88;5126315;28;20203;-72
2023/03/21 07:03:57;;;;;;;6.18;5.15;;;;;;;14.67;49.98;99240.66;5125469;28;20257;-72
2023/03/21 07:06:25;;;;;;;6.43;5.82;;;;;;;14.45;49.69;99153.34;5125908;28;20100;-71
2023/03/21 07:08:52;;;;;;;6.63;4.88;;;;;;;15.10;49.47;99234.78;5125989;28;20057;-72
2023/03/21 07:11:20;;;;;;;6.70;5.90;;;;;;;15.26;48.87;99225.50;5108302;28;20039;-71
2023/03/21 07:13:48;;;;;;;4.95;4.45;;;;;;;15.03;48.50;99175.69;5125046;28;20282;-71
2023/03/21 07:16:16;;;;;;;5.28;4.63;;;;;;;15.45;48.40;99216.94;5124767;28;20202;-72
2023/03/21 07:18:42;;;;;;;6.10;5.50;;;;;;;15.64;48.04;99227.88;5126055;28;20032;-72
2023/03/21 07:21:11;;;;;;;6.78;5.38;;;;;;;15.55;47.78;99168.97;5124759;28;20322;-71
2023/03/21 07:23:38;;;;;;;6.50;5.68;;;;;;;16.08;47.21;99222.72;5125926;28;20176;-72
2023/03/21 07:26:06;;;;;;;5.70;5.00;;;;;;;16.29;46.72;99218.31;5126574;28;20233;-71
2023/03/21 07:28:33;;;;;;;6.03;5.43;;;;;;;16.50;46.48;99226.41;5130281;28;20032;-72
2023/03/21 07:31:03;;;;;;;6.30;4.70;;;;;;;16.67;46.01;99209.84;5130194;28;20191;-72
2023/03/21 07:33:31;;;;;;;7.22;4.88;;;;;;;16.85;45.70;99208.34;5129990;28;20078;-72
2023/03/21 07:35:59;;;;;;;5.22;4.28;;;;;;;16.98;45.38;99219.72;5130094;28;20044;-72
2023/03/21 07:38:30;;;;;;;6.43;4.47;;;;;;;17.03;44.39;99208.63;5128980;28;20035;-71
2023/03/21 07:40:59;;;;;;;6.05;4.50;;;;;;;17.13;45.21;99230.13;5129768;28;20039;-71
2023/03/21 07:43:26;;;;;;;5.38;4.57;;;;;;;17.07;44.75;99158.34;5129640;28;20040;-70
2023/03/21 07:45:57;;;;;;;5.30;4.55;;;;;;;17.57;43.78;99207.63;5128327;28;20051;-72
2023/03/21 07:48:24;;;;;;;4.30;3.85;;;;;;;17.02;44.35;99090.97;5129324;28;20036;-72
2023/03/21 07:50:51;;;;;;;5.10;4.13;;;;;;;17.73;44.39;99207.16;5129612;28;20043;-72
2023/03/21 07:53:18;;;;;;;5.10;4.35;;;;;;;17.73;44.21;99208.00;5128763;28;20051;-71
2023/03/21 07:55:50;;;;;;;5.18;4.15;;;;;;;17.73;42.43;99213.38;5128999;28;20039;-72
2023/03/21 07:58:17;;;;;;;4.68;4.03;;;;;;;17.80;43.86;99211.00;5129233;28;20042;-72
2023/03/21 08:00:44;;;;;;;5.38;4.43;;;;;;;17.93;43.34;99215.16;5129746;28;20058;-72
2023/03/21 08:03:10;;;;;;;4.40;3.70;;;;;;;18.12;43.43;99214.38;5129390;28;20050;-71
2023/03/21 08:05:38;;;;;;;8.02;4.50;;;;;;;18.21;42.80;99208.22;5128619;28;20046;-71
2023/03/21 08:08:06;;;;;;;5.78;4.35;;;;;;;18.24;42.77;99207.09;5129227;28;20115;-72
2023/03/21 08:10:34;;;;;;;5.60;4.00;;;;;;;18.40;42.64;99206.56;5129406;28;20259;-72
2023/03/21 08:13:03;;;;;;;5.72;3.65;;;;;;;18.30;42.12;99168.97;5129364;28;20036;-72
2023/03/21 08:15:30;;;;;;;4.85;3.78;;;;;;;18.57;41.91;99201.41;5128066;28;20039;-72
2023/03/21 08:17:59;;;;;;;4.55;3.58;;;;;;;18.72;41.54;99199.16;5128949;28;20102;-72
2023/03/21 08:20:26;;;;;;;4.85;3.50;;;;;;;18.74;41.85;99196.34;5128901;28;20063;-72
2023/03/21 08:22:53;;;;;;;5.68;3.90;;;;;;;18.79;41.56;99192.25;5128107;28;20039;-72
2023/03/21 08:25:22;;;;;;;5.63;4.07;;;;;;;18.80;41.15;99198.47;5128734;28;20045;-72
2023/03/21 08:27:50;;;;;;;5.20;4.05;;;;;;;18.78;41.12;99201.28;5128057;28;20046;-72
2023/03/21 08:30:20;;;;;;;6.80;4.30;;;;;;;18.69;40.41;99206.66;5128120;28;20039;-72
2023/03/21 08:32:48;;;;;;;7.00;4.25;;;;;;;18.37;41.26;99153.19;5128799;28;20059;-72
2023/03/21 08:35:18;;;;;;;5.30;4.03;;;;;;;18.66;41.17;99209.63;5128289;28;20337;-72
2023/03/21 08:37:45;;;;;;;5.68;4.25;;;;;;;18.55;41.04;99208.75;5127509;28;20044;-72
2023/03/21 08:40:14;;;;;;;5.90;4.30;;;;;;;18.45;41.45;99196.28;5128481;28;20199;-71
2023/03/21 08:42:42;;;;;;;6.38;4.50;;;;;;;18.33;41.50;99200.91;5127802;28;20048;-71
2023/03/21 08:45:11;;;;;;;4.20;3.63;;;;;;;18.21;41.32;99202.00;5127867;28;20039;-71
2023/03/21 08:47:41;;;;;;;5.15;4.13;;;;;;;18.09;41.08;99195.03;5128889;28;20345;-72
2023/03/21 08:50:13;;;;;;;4.93;3.70;;;;;;;17.95;40.42;99201.63;5127735;28;20058;-72
2023/03/21 08:52:42;;;;;;;4.70;4.20;;;;;;;17.81;42.37;99255.59;5127770;28;20226;-71
2023/03/21 08:55:13;;;;;;;5.05;4.18;;;;;;;16.83;41.84;99048.84;5128575;28;20186;-71
2023/03/21 08:57:40;;;;;;;5.68;4.90;;;;;;;17.19;41.89;99127.84;5128474;28;20038;-71
2023/03/21 09:00:12;;;;;;;5.78;4.82;;;;;;;17.54;42.31;99208.72;5128733;28;20035;-71
2023/03/21 09:02:41;;;;;;;5.93;4.72;;;;;;;17.46;42.34;99205.84;5127628;28;20047;-71
2023/03/21 09:05:10;;;;;;;7.20;4.75;;;;;;;17.37;42.80;99212.00;5128567;28;20050;-71
2023/03/21 09:07:38;;;;;;;8.48;5.30;;;;;;;17.25;42.94;99207.69;5110648;28;20036;-72
2023/03/21 09:10:06;;;;;;;5.10;4.45;;;;;;;17.16;42.80;99195.06;5128329;28;20039;-72
2023/03/21 09:12:33;;;;;;;5.65;4.53;;;;;;;16.74;42.70;99146.81;5127371;28;20044;-72
2023/03/21 09:15:01;;;;;;;6.35;5.68;;;;;;;17.02;42.72;99206.06;5127923;28;20138;-71
2023/03/21 09:17:28;;;;;;;11.32;5.35;;;;;;;16.81;43.16;99182.81;5127532;28;20036;-71
2023/03/21 09:19:58;;;;;;;5.50;4.38;;;;;;;16.91;42.73;99204.28;5126990;28;20074;-72
2023/03/21 09:22:25;;;;;;;4.38;3.97;;;;;;;16.61;42.96;99180.91;5128048;28;20200;-72
2023/03/21 09:24:52;;;;;;;10.68;5.30;;;;;;;16.69;43.13;99199.88;5127072;28;20043;-72
2023/03/21 09:27:21;;;;;;;6.32;4.57;;;;;;;16.63;42.77;99211.06;5126979;28;20084;-72
2023/03/21 09:29:49;;;;;;;5.07;3.95;;;;;;;16.55;43.21;99198.31;5127245;28;20039;-71
2023/03/21 09:32:17;;;;;;;6.15;4.65;;;;;;;16.56;42.84;99209.84;5127594;28;20320;-72
2023/03/21 09:34:44;;;;;;;6.63;4.30;;;;;;;16.60;43.06;99203.28;5127000;28;20263;-71
2023/03/21 09:37:12;;;;;;;8.57;4.95;;;;;;;16.62;42.83;99193.31;5127781;28;20059;-72
2023/03/21 09:39:41;;;;;;;5.95;4.50;;;;;;;16.56;42.54;99165.22;5126914;28;20180;-71
2023/03/21 09:42:19;;;;;;;5.65;4.65;;;;;;;16.90;41.71;99183.88;5128079;28;20039;-71
2023/03/21 09:45:00;;;;;;;8.55;5.60;;;;;;;16.95;41.83;99162.91;5127491;28;20104;-72
2023/03/21 09:47:31;;;;;;;7.15;5.68;;;;;;;17.29;41.69;99168.94;5127456;28;20063;-71
2023/03/21 09:50:02;;;;;;;7.53;4.85;;;;;;;17.59;41.26;99178.84;5126532;28;20103;-72
2023/03/21 09:52:41;;;;;;;5.93;5.18;;;;;;;17.83;40.55;99178.56;5126633;28;20039;-72
2023/03/21 09:55:18;;;;;;;6.43;5.70;;;;;;;18.07;39.76;99167.50;5127286;28;20051;-71
2023/03/21 09:57:48;;;;;;;6.70;5.50;;;;;;;18.11;40.44;99167.09;5127801;28;20039;-72
2023/03/21 10:00:23;;;;;;;7.07;5.30;;;;;;;18.09;39.51;99174.44;5127732;28;20040;-71
2023/03/21 10:02:52;;;;;;;5.68;4.65;;;;;;;18.00;40.62;99169.88;5127744;28;20077;-71
2023/03/21 10:05:22;;;;;;;5.68;4.45;;;;;;;16.52;40.31;98932.88;5126632;28;20045;-72
2023/03/21 10:07:56;;;;;;;14.73;5.35;;;;;;;17.80;39.36;99168.13;5126486;28;20036;-72
2023/03/21 10:10:28;;;;;;;6.88;5.10;;;;;;;17.69;40.71;99138.72;5127098;28;20051;-72
2023/03/21 10:12:56;;;;;;;6.70;4.85;;;;;;;18.11;40.40;99145.66;5126153;28;20039;-71
2023/03/21 10:15:26;;;;;;;6.25;4.45;;;;;;;18.15;39.72;99147.06;5127320;28;20088;-72
2023/03/21 10:17:58;;;;;;;9.13;5.63;;;;;;;18.13;39.17;99148.19;5127018;28;20032;-72
2023/03/21 10:20:26;;;;;;;7.13;4.75;;;;;;;18.07;40.24;99144.22;5126480;28;20036;-72
2023/03/21 10:22:56;;;;;;;5.85;4.00;;;;;;;18.01;39.88;99142.09;5125770;28;20206;-72
2023/03/21 10:25:31;;;;;;;5.10;4.43;;;;;;;17.96;39.75;99144.34;5127445;28;20046;-72
2023/03/21 10:27:59;;;;;;;;;;;;;;;17.80;38.39;99136.81;5126630;28;20119;-72
2023/03/21 10:30:35;;;;;;;6.25;4.20;;;;;;;17.74;39.86;99142.72;5126815;28;20138;-71
2023/03/21 10:33:08;;;;;;;6.00;4.55;;;;;;;17.04;40.46;99032.78;5126562;28;20047;-72
2023/03/21 10:35:38;;;;;;;5.80;4.35;;;;;;;17.40;40.44;99106.41;5110785;28;20222;-72
2023/03/21 10:38:16;;;;;;;6.18;4.35;;;;;;;17.32;39.35;99109.75;5108944;28;20307;-71
2023/03/21 10:40:47;;;;;;;6.68;4.35;;;;;;;17.33;40.81;99138.25;5127245;28;20042;-71
2023/03/21 10:43:33;;;;;;;7.50;5.13;;;;;;;17.08;39.60;99112.69;5127358;28;20241;-72
2023/03/21 10:46:07;;;;;;;7.13;4.05;;;;;;;17.33;40.58;99138.25;5126738;28;20177;-72
2023/03/21 10:48:37;;;;;;;7.28;4.68;;;;;;;17.45;40.76;99133.66;5126464;28;20103;-72
2023/03/21 10:51:06;;;;;;;6.28;4.95;;;;;;;17.22;40.34;99095.47;5126457;28;20321;-72
2023/03/21 10:53:38;;;;;;;5.60;4.43;;;;;;;17.58;40.11;99111.00;5126488;28;20092;-72
2023/03/21 10:56:08;;;;;;;6.75;5.53;;;;;;;17.81;39.91;99143.88;5125543;28;20315;-71
2023/03/21 10:58:41;;;;;;;5.70;4.82;;;;;;;17.80;39.70;99133.28;5126318;28;20043;-71
2023/03/21 11:01:14;;;;;;;5.43;4.70;;;;;;;17.51;39.73;99092.94;5125079;28;20040;-72
2023/03/21 11:03:45;;;;;;;5.25;4.35;;;;;;;17.56;39.88;99086.19;5125244;28;20036;-72
2023/03/21 11:06:17;;;;;;;5.10;4.10;;;;;;;18.12;39.82;99133.94;5126379;28;20310;-72
2023/03/21 11:08:51;;;;;;;6.80;5.50;;;;;;;18.29;38.75;99121.69;5108099;28;20077;-72
2023/03/21 11:11:26;;;;;;;7.60;5.27;;;;;;;17.98;38.50;99040.47;5125320;28;20043;-71
2023/03/21 11:14:05;;;;;;;7.25;4.45;;;;;;;18.11;38.11;99041.06;5125992;28;20047;-72
2023/03/21 11:16:38;;;;;;;7.75;4.63;;;;;;;18.69;38.17;99110.03;5126332;28;20031;-71
2023/03/21 11:19:14;;;;;;;6.65;4.72;;;;;;;18.05;37.56;98982.63;5124844;28;20036;-72
2023/03/21 11:21:41;;;;;;;6.38;4.75;;;;;;;18.21;38.72;98999.00;5125638;28;20039;-72
2023/03/21 11:24:16;;;;;;;5.68;4.68;;;;;;;18.82;37.92;99100.69;5125741;28;20051;-72
2023/03/21 11:26:47;;;;;;;6.60;5.20;;;;;;;18.68;38.21;99074.28;5125161;28;20072;-71
2023/03/21 11:29:27;;;;;;;6.22;5.00;;;;;;;18.75;37.63;99099.56;5107505;28;20238;-72
2023/03/21 11:32:00;;;;;;;7.30;5.05;;;;;;;18.53;38.19;99068.50;5124569;28;20122;-72
2023/03/21 11:34:33;;;;;;;6.03;5.25;;;;;;;18.33;38.70;99044.47;5125049;28;20363;-71
2023/03/21 11:37:03;;;;;;;4.47;3.88;;;;;;;18.74;38.39;99091.66;5125877;28;20044;-71
2023/03/21 11:39:54;;;;;;;7.38;4.45;;;;;;;18.78;37.41;99060.84;5125826;28;20040;-72
2023/03/21 11:42:30;;;;;;;5.22;4.38;;;;;;;19.06;37.55;99083.25;5125753;28;20040;-72
2023/03/21 11:45:03;;;;;;;4.88;4.13;;;;;;;18.90;37.00;99038.22;5124620;28;20043;-72
2023/03/21 11:47:30;;;;;;;6.38;3.97;;;;;;;16.14;37.70;98585.97;5125797;28;20044;-72